メインページ
METAR-TAF:

METAR-TAF

空港 :

カラカス, ベネズエラ

シモン・ボリバル国際空港

緯度: 10-36N, 経度: 066-59W, 海抜: 43m

現時点の気象観測

当レポートは1時間15分前の05:00(UTC)に作成
無風
気温 28°C
湿度 66%
気圧 1013 hPa
視程10km以上
高度1600ftの雲は散在している

METAR: SVMI 280500Z 00000KT 9999 SCT016 28/21 Q1013

時間: 02:15 (06:15 UTC)

予報

当レポートは2時間15分前の04:00(UTC)に作成
予報は28日の 06時(UTC)から 29日の 06時(UTC)まで有効
の風 kt
視程10km以上
高度1600ftの雲は散在している
28日の 06時(UTC)から 28日の 10時(UTC)まで徐々に
の風 kt
高度1600ftの雲はほとんどない

TAF: SVMI 280400Z 2806/2906 00000KT 9999 SCT016 TX32/18Z TN24/08Z BECMG 2806/2810 00000KT FEW016

4,000以上の空港の気象観測と天気予報(METAR報とTAF報)

利用可能な観測所は地図上に黄色い丸と赤い丸で示す。

丸の上にカーソルを重ねると観測所名を参照できる。

次にクリックすると気象観測と天気予報を参照できる。

マップの切り替え:黒色「×」印の緑ボタンをクリックして拡大、「-」印の緑ボタンをクリックして縮小、緑色の三角印をクリックして隣りの地図に切り替え


METAR-TAF: